sensor_id;sensor_type;location;lat;lon;timestamp;pressure;altitude;pressure_sealevel;temperature;humidity
44920;BME280;30655;53.094;6.072;2023-01-25T00:00:08;103968.84;;;1.80;93.94
44920;BME280;30655;53.094;6.072;2023-01-25T00:02:35;103972.75;;;1.76;93.70
44920;BME280;30655;53.094;6.072;2023-01-25T00:05:05;103816.59;;;0.82;93.68
44920;BME280;30655;53.094;6.072;2023-01-25T00:07:34;103810.22;;;0.95;93.74
44920;BME280;30655;53.094;6.072;2023-01-25T00:10:02;103895.31;;;1.47;93.81
44920;BME280;30655;53.094;6.072;2023-01-25T00:12:31;103764.13;;;0.73;93.24
44920;BME280;30655;53.094;6.072;2023-01-25T00:14:58;103754.19;;;0.75;93.82
44920;BME280;30655;53.094;6.072;2023-01-25T00:17:25;103935.03;;;1.90;93.56
44920;BME280;30655;53.094;6.072;2023-01-25T00:19:54;103854.31;;;1.39;93.50
44920;BME280;30655;53.094;6.072;2023-01-25T00:22:21;103885.66;;;1.56;93.56
44920;BME280;30655;53.094;6.072;2023-01-25T00:24:49;103882.28;;;1.54;93.31
44920;BME280;30655;53.094;6.072;2023-01-25T00:27:16;103777.97;;;0.98;93.13
44920;BME280;30655;53.094;6.072;2023-01-25T00:29:44;103938.31;;;1.94;93.68
44920;BME280;30655;53.094;6.072;2023-01-25T00:32:27;103929.56;;;1.82;93.46
44920;BME280;30655;53.094;6.072;2023-01-25T00:34:54;103913.19;;;1.66;93.53
44920;BME280;30655;53.094;6.072;2023-01-25T00:37:29;103938.28;;;1.84;93.06
44920;BME280;30655;53.094;6.072;2023-01-25T00:39:57;103791.75;;;1.03;93.52
44920;BME280;30655;53.094;6.072;2023-01-25T00:42:27;103841.06;;;1.27;93.51
44920;BME280;30655;53.094;6.072;2023-01-25T00:44:54;103921.69;;;1.81;93.72
44920;BME280;30655;53.094;6.072;2023-01-25T00:47:21;103889.31;;;1.64;93.69
44920;BME280;30655;53.094;6.072;2023-01-25T00:49:48;103897.53;;;1.72;93.47
44920;BME280;30655;53.094;6.072;2023-01-25T00:52:15;103904.53;;;1.73;93.80
44920;BME280;30655;53.094;6.072;2023-01-25T00:54:44;103768.78;;;0.81;93.24
44920;BME280;30655;53.094;6.072;2023-01-25T00:57:12;103740.41;;;0.70;93.85
44920;BME280;30655;53.094;6.072;2023-01-25T00:59:43;103885.97;;;1.62;93.79
44920;BME280;30655;53.094;6.072;2023-01-25T01:02:10;103800.75;;;1.11;93.79
44920;BME280;30655;53.094;6.072;2023-01-25T01:04:38;103865.81;;;1.39;93.65
44920;BME280;30655;53.094;6.072;2023-01-25T01:07:05;103814.25;;;1.19;93.58
44920;BME280;30655;53.094;6.072;2023-01-25T01:09:34;103890.34;;;1.63;93.72
44920;BME280;30655;53.094;6.072;2023-01-25T01:12:01;103875.84;;;1.56;93.74
44920;BME280;30655;53.094;6.072;2023-01-25T01:14:29;103783.63;;;1.04;93.60
44920;BME280;30655;53.094;6.072;2023-01-25T01:16:57;103886.97;;;1.71;93.70
44920;BME280;30655;53.094;6.072;2023-01-25T01:19:23;103751.19;;;0.90;93.42
44920;BME280;30655;53.094;6.072;2023-01-25T01:21:50;103785.03;;;1.08;93.82
44920;BME280;30655;53.094;6.072;2023-01-25T01:24:17;103903.38;;;1.66;93.48
44920;BME280;30655;53.094;6.072;2023-01-25T01:26:44;103661.50;;;0.29;93.65
44920;BME280;30655;53.094;6.072;2023-01-25T01:29:11;103763.78;;;0.88;93.84
44920;BME280;30655;53.094;6.072;2023-01-25T01:31:40;103867.81;;;1.47;94.07
44920;BME280;30655;53.094;6.072;2023-01-25T01:34:11;103773.13;;;0.82;94.31
44920;BME280;30655;53.094;6.072;2023-01-25T01:36:39;103711.56;;;0.45;93.84
44920;BME280;30655;53.094;6.072;2023-01-25T01:39:08;103839.25;;;1.28;94.12
44920;BME280;30655;53.094;6.072;2023-01-25T01:41:41;103887.63;;;1.54;93.90
44920;BME280;30655;53.094;6.072;2023-01-25T01:44:15;103885.38;;;1.49;94.28
44920;BME280;30655;53.094;6.072;2023-01-25T01:46:50;103883.78;;;1.47;93.98
44920;BME280;30655;53.094;6.072;2023-01-25T01:49:22;103893.22;;;1.51;94.10
44920;BME280;30655;53.094;6.072;2023-01-25T01:51:56;103884.78;;;1.46;94.29
44920;BME280;30655;53.094;6.072;2023-01-25T01:54:29;103875.22;;;1.43;93.98
44920;BME280;30655;53.094;6.072;2023-01-25T01:57:01;103861.72;;;1.35;94.13
44920;BME280;30655;53.094;6.072;2023-01-25T01:59:36;103871.44;;;1.46;94.62
44920;BME280;30655;53.094;6.072;2023-01-25T02:02:07;103828.69;;;1.17;93.99
44920;BME280;30655;53.094;6.072;2023-01-25T02:04:34;103876.78;;;1.46;93.91
44920;BME280;30655;53.094;6.072;2023-01-25T02:07:05;103837.25;;;1.20;94.19
44920;BME280;30655;53.094;6.072;2023-01-25T02:09:35;103878.03;;;1.42;94.56
44920;BME280;30655;53.094;6.072;2023-01-25T02:12:05;103750.09;;;0.71;94.23
44920;BME280;30655;53.094;6.072;2023-01-25T02:14:33;103726.44;;;0.48;94.58
44920;BME280;30655;53.094;6.072;2023-01-25T02:17:02;103694.44;;;0.38;94.07
44920;BME280;30655;53.094;6.072;2023-01-25T02:19:38;103861.16;;;1.32;94.51
44920;BME280;30655;53.094;6.072;2023-01-25T02:22:10;103866.06;;;1.36;94.99
44920;BME280;30655;53.094;6.072;2023-01-25T02:24:40;103870.09;;;1.30;95.23
44920;BME280;30655;53.094;6.072;2023-01-25T02:27:13;103734.59;;;0.56;94.96
44920;BME280;30655;53.094;6.072;2023-01-25T02:29:41;103683.28;;;0.23;94.67
44920;BME280;30655;53.094;6.072;2023-01-25T02:32:08;103756.16;;;0.53;95.10
44920;BME280;30655;53.094;6.072;2023-01-25T02:34:35;103682.06;;;0.27;94.92
44920;BME280;30655;53.094;6.072;2023-01-25T02:37:02;103849.63;;;1.31;94.71
44920;BME280;30655;53.094;6.072;2023-01-25T02:39:30;103837.00;;;1.23;95.07
44920;BME280;30655;53.094;6.072;2023-01-25T02:41:57;103844.38;;;1.20;94.64
44920;BME280;30655;53.094;6.072;2023-01-25T02:44:27;103847.94;;;1.30;94.79
44920;BME280;30655;53.094;6.072;2023-01-25T02:46:58;103857.78;;;1.29;94.83
44920;BME280;30655;53.094;6.072;2023-01-25T02:49:27;103755.13;;;0.65;94.70
44920;BME280;30655;53.094;6.072;2023-01-25T02:51:54;103820.13;;;1.13;95.05
44920;BME280;30655;53.094;6.072;2023-01-25T02:54:29;103840.09;;;1.28;94.43
44920;BME280;30655;53.094;6.072;2023-01-25T02:56:56;103797.41;;;1.09;94.86
44920;BME280;30655;53.094;6.072;2023-01-25T02:59:24;103828.03;;;1.24;94.57
44920;BME280;30655;53.094;6.072;2023-01-25T03:01:51;103839.81;;;1.32;94.76
44920;BME280;30655;53.094;6.072;2023-01-25T03:04:18;103780.25;;;1.02;94.99
44920;BME280;30655;53.094;6.072;2023-01-25T03:06:45;103823.00;;;1.31;94.35
44920;BME280;30655;53.094;6.072;2023-01-25T03:09:12;103656.47;;;0.36;94.24
44920;BME280;30655;53.094;6.072;2023-01-25T03:11:39;103787.03;;;1.16;94.54
44920;BME280;30655;53.094;6.072;2023-01-25T03:14:06;103657.78;;;0.41;94.48
44920;BME280;30655;53.094;6.072;2023-01-25T03:16:36;103801.84;;;1.29;94.63
44920;BME280;30655;53.094;6.072;2023-01-25T03:19:04;103803.44;;;1.21;95.09
44920;BME280;30655;53.094;6.072;2023-01-25T03:21:31;103765.50;;;0.98;95.30
44920;BME280;30655;53.094;6.072;2023-01-25T03:23:59;103784.78;;;1.11;95.16
44920;BME280;30655;53.094;6.072;2023-01-25T03:26:29;103800.22;;;1.17;95.13
44920;BME280;30655;53.094;6.072;2023-01-25T03:28:56;103767.66;;;1.04;95.16
44920;BME280;30655;53.094;6.072;2023-01-25T03:31:23;103645.16;;;0.34;94.52
44920;BME280;30655;53.094;6.072;2023-01-25T03:33:52;103641.44;;;0.25;94.91
44920;BME280;30655;53.094;6.072;2023-01-25T03:36:20;103695.16;;;0.70;95.06
44920;BME280;30655;53.094;6.072;2023-01-25T03:38:48;103786.09;;;1.26;95.07
44920;BME280;30655;53.094;6.072;2023-01-25T03:41:15;103758.41;;;1.08;95.22
44920;BME280;30655;53.094;6.072;2023-01-25T03:43:41;103787.78;;;1.27;94.82
44920;BME280;30655;53.094;6.072;2023-01-25T03:46:08;103766.13;;;1.11;94.66
44920;BME280;30655;53.094;6.072;2023-01-25T03:48:35;103740.13;;;0.94;95.04
44920;BME280;30655;53.094;6.072;2023-01-25T03:51:04;103761.75;;;1.10;95.16
44920;BME280;30655;53.094;6.072;2023-01-25T03:53:31;103596.09;;;0.27;95.05
44920;BME280;30655;53.094;6.072;2023-01-25T03:56:00;103757.72;;;1.16;94.79
44920;BME280;30655;53.094;6.072;2023-01-25T03:58:28;103776.28;;;1.27;94.80
44920;BME280;30655;53.094;6.072;2023-01-25T04:00:56;103766.75;;;1.24;94.90
44920;BME280;30655;53.094;6.072;2023-01-25T04:03:24;103666.84;;;0.60;95.01
44920;BME280;30655;53.094;6.072;2023-01-25T04:05:52;103687.06;;;0.72;94.83
44920;BME280;30655;53.094;6.072;2023-01-25T04:08:22;103773.31;;;1.20;94.65
44920;BME280;30655;53.094;6.072;2023-01-25T04:10:49;103626.31;;;0.26;94.87
44920;BME280;30655;53.094;6.072;2023-01-25T04:13:16;103784.53;;;1.14;95.21
44920;BME280;30655;53.094;6.072;2023-01-25T04:15:43;103659.00;;;0.37;94.89
44920;BME280;30655;53.094;6.072;2023-01-25T04:18:10;103681.81;;;0.61;94.86
44920;BME280;30655;53.094;6.072;2023-01-25T04:20:37;103583.09;;;0.03;94.64
44920;BME280;30655;53.094;6.072;2023-01-25T04:23:05;103588.75;;;0.10;94.57
44920;BME280;30655;53.094;6.072;2023-01-25T04:25:34;103770.06;;;1.17;94.88
44920;BME280;30655;53.094;6.072;2023-01-25T04:28:01;103754.94;;;1.17;94.72
44920;BME280;30655;53.094;6.072;2023-01-25T04:30:32;103724.59;;;0.99;94.71
44920;BME280;30655;53.094;6.072;2023-01-25T04:33:02;103726.88;;;1.13;94.80
44920;BME280;30655;53.094;6.072;2023-01-25T04:35:31;103728.16;;;1.09;94.81
44920;BME280;30655;53.094;6.072;2023-01-25T04:37:58;103565.91;;;0.07;94.74
44920;BME280;30655;53.094;6.072;2023-01-25T04:40:25;103646.31;;;0.51;94.77
44920;BME280;30655;53.094;6.072;2023-01-25T04:42:54;103610.97;;;0.29;94.53
44920;BME280;30655;53.094;6.072;2023-01-25T04:45:22;103561.22;;;-0.10;94.69
44920;BME280;30655;53.094;6.072;2023-01-25T04:47:54;103567.41;;;0.00;94.80
44920;BME280;30655;53.094;6.072;2023-01-25T04:50:28;103714.88;;;0.89;95.00
44920;BME280;30655;53.094;6.072;2023-01-25T04:52:55;103639.03;;;0.43;94.82
44920;BME280;30655;53.094;6.072;2023-01-25T04:55:22;103606.41;;;0.20;94.58
44920;BME280;30655;53.094;6.072;2023-01-25T04:57:49;103736.31;;;0.87;94.65
44920;BME280;30655;53.094;6.072;2023-01-25T05:00:19;103706.94;;;0.68;94.46
44920;BME280;30655;53.094;6.072;2023-01-25T05:02:46;103530.47;;;-0.45;94.24
44920;BME280;30655;53.094;6.072;2023-01-25T05:05:14;103745.03;;;0.89;94.32
44920;BME280;30655;53.094;6.072;2023-01-25T05:07:41;103740.09;;;0.84;94.47
44920;BME280;30655;53.094;6.072;2023-01-25T05:10:09;103747.94;;;0.86;94.54
44920;BME280;30655;53.094;6.072;2023-01-25T05:12:36;103736.53;;;0.74;94.35
44920;BME280;30655;53.094;6.072;2023-01-25T05:15:06;103749.28;;;0.80;94.43
44920;BME280;30655;53.094;6.072;2023-01-25T05:17:36;103703.91;;;0.52;94.12
44920;BME280;30655;53.094;6.072;2023-01-25T05:20:04;103753.78;;;0.80;94.54
44920;BME280;30655;53.094;6.072;2023-01-25T05:22:31;103749.44;;;0.79;94.38
44920;BME280;30655;53.094;6.072;2023-01-25T05:24:58;103732.72;;;0.67;94.39
44920;BME280;30655;53.094;6.072;2023-01-25T05:27:25;103758.41;;;0.78;94.50
44920;BME280;30655;53.094;6.072;2023-01-25T05:29:54;103679.00;;;0.32;94.15
44920;BME280;30655;53.094;6.072;2023-01-25T05:32:22;103742.00;;;0.73;94.39
44920;BME280;30655;53.094;6.072;2023-01-25T05:34:51;103723.44;;;0.62;94.67
44920;BME280;30655;53.094;6.072;2023-01-25T05:37:19;103700.28;;;0.53;94.19
44920;BME280;30655;53.094;6.072;2023-01-25T05:39:47;103715.28;;;0.54;94.56
44920;BME280;30655;53.094;6.072;2023-01-25T05:42:15;103733.28;;;0.71;94.80
44920;BME280;30655;53.094;6.072;2023-01-25T05:44:42;103742.00;;;0.73;94.35
44920;BME280;30655;53.094;6.072;2023-01-25T05:47:14;103714.75;;;0.60;94.68
44920;BME280;30655;53.094;6.072;2023-01-25T05:49:41;103741.00;;;0.74;94.57
44920;BME280;30655;53.094;6.072;2023-01-25T05:52:12;103731.34;;;0.73;94.53
44920;BME280;30655;53.094;6.072;2023-01-25T05:54:40;103738.34;;;0.74;94.25
44920;BME280;30655;53.094;6.072;2023-01-25T05:57:07;103569.44;;;-0.34;94.90
44920;BME280;30655;53.094;6.072;2023-01-25T05:59:34;103730.16;;;0.66;94.83
44920;BME280;30655;53.094;6.072;2023-01-25T06:02:01;103729.06;;;0.68;94.69
44920;BME280;30655;53.094;6.072;2023-01-25T06:04:28;103717.53;;;0.58;94.55
44920;BME280;30655;53.094;6.072;2023-01-25T06:06:55;103701.50;;;0.49;94.92
44920;BME280;30655;53.094;6.072;2023-01-25T06:09:24;103717.13;;;0.63;95.11
44920;BME280;30655;53.094;6.072;2023-01-25T06:11:51;103707.28;;;0.54;95.29
44920;BME280;30655;53.094;6.072;2023-01-25T06:14:19;103699.03;;;0.57;95.08
44920;BME280;30655;53.094;6.072;2023-01-25T06:16:46;103645.09;;;0.24;94.94
44920;BME280;30655;53.094;6.072;2023-01-25T06:19:13;103674.19;;;0.47;94.76
44920;BME280;30655;53.094;6.072;2023-01-25T06:21:46;103683.00;;;0.47;95.27
44920;BME280;30655;53.094;6.072;2023-01-25T06:31:27;103619.59;;;0.01;95.21
44920;BME280;30655;53.094;6.072;2023-01-25T06:37:47;103618.50;;;0.04;95.13
44920;BME280;30655;53.094;6.072;2023-01-25T06:40:57;103515.25;;;-0.63;95.13
44920;BME280;30655;53.094;6.072;2023-01-25T06:44:07;103722.72;;;0.60;94.87
44920;BME280;30655;53.094;6.072;2023-01-25T06:50:18;103460.75;;;-0.99;95.46
44920;BME280;30655;53.094;6.072;2023-01-25T06:52:57;103646.22;;;0.31;95.48
44920;BME280;30655;53.094;6.072;2023-01-25T06:55:37;103684.75;;;0.58;95.31
44920;BME280;30655;53.094;6.072;2023-01-25T06:58:25;103639.78;;;0.24;95.47
44920;BME280;30655;53.094;6.072;2023-01-25T07:04:08;103690.06;;;0.58;95.69
44920;BME280;30655;53.094;6.072;2023-01-25T07:06:42;103687.75;;;0.43;95.67
44920;BME280;30655;53.094;6.072;2023-01-25T07:09:12;103697.66;;;0.62;95.64
44920;BME280;30655;53.094;6.072;2023-01-25T07:11:45;103689.63;;;0.53;95.70
44920;BME280;30655;53.094;6.072;2023-01-25T07:14:12;103612.78;;;0.08;95.99
44920;BME280;30655;53.094;6.072;2023-01-25T07:16:44;103707.97;;;0.56;96.57
44920;BME280;30655;53.094;6.072;2023-01-25T07:19:16;103553.41;;;-0.44;95.85
44920;BME280;30655;53.094;6.072;2023-01-25T07:21:48;103565.00;;;-0.24;95.70
44920;BME280;30655;53.094;6.072;2023-01-25T07:24:29;103580.78;;;-0.11;96.37
44920;BME280;30655;53.094;6.072;2023-01-25T07:26:59;103696.56;;;0.65;96.27
44920;BME280;30655;53.094;6.072;2023-01-25T07:29:34;103587.25;;;-0.04;96.01
44920;BME280;30655;53.094;6.072;2023-01-25T07:32:04;103670.44;;;0.49;96.47
44920;BME280;30655;53.094;6.072;2023-01-25T07:34:34;103524.19;;;-0.23;96.07
44920;BME280;30655;53.094;6.072;2023-01-25T07:37:08;103550.56;;;-0.10;96.20
44920;BME280;30655;53.094;6.072;2023-01-25T07:39:35;103512.09;;;-0.36;96.82
44920;BME280;30655;53.094;6.072;2023-01-25T07:42:03;103594.69;;;0.23;96.46
44920;BME280;30655;53.094;6.072;2023-01-25T07:44:37;103584.47;;;0.28;96.11
44920;BME280;30655;53.094;6.072;2023-01-25T07:47:31;103460.25;;;-0.52;96.54
44920;BME280;30655;53.094;6.072;2023-01-25T07:50:11;103664.81;;;0.82;96.45
44920;BME280;30655;53.094;6.072;2023-01-25T07:52:39;103634.06;;;0.59;96.58
44920;BME280;30655;53.094;6.072;2023-01-25T07:55:09;103585.78;;;0.33;96.08
44920;BME280;30655;53.094;6.072;2023-01-25T07:57:37;103612.78;;;0.59;96.46
44920;BME280;30655;53.094;6.072;2023-01-25T08:00:08;103464.81;;;-0.33;96.32
44920;BME280;30655;53.094;6.072;2023-01-25T08:02:40;103615.00;;;0.54;96.17
44920;BME280;30655;53.094;6.072;2023-01-25T08:05:15;103597.47;;;0.52;96.84
44920;BME280;30655;53.094;6.072;2023-01-25T08:08:06;103389.41;;;-0.72;96.47
44920;BME280;30655;53.094;6.072;2023-01-25T08:10:33;103581.47;;;0.42;96.50
44920;BME280;30655;53.094;6.072;2023-01-25T08:13:00;103526.84;;;0.08;96.56
44920;BME280;30655;53.094;6.072;2023-01-25T08:15:27;103470.91;;;-0.21;96.63
44920;BME280;30655;53.094;6.072;2023-01-25T08:18:21;103584.03;;;0.53;96.69
44920;BME280;30655;53.094;6.072;2023-01-25T08:21:15;103439.81;;;-0.30;96.91
44920;BME280;30655;53.094;6.072;2023-01-25T08:23:44;103523.66;;;0.14;96.71
44920;BME280;30655;53.094;6.072;2023-01-25T08:26:13;103623.50;;;0.88;97.23
44920;BME280;30655;53.094;6.072;2023-01-25T08:28:44;103401.84;;;-0.42;96.95
44920;BME280;30655;53.094;6.072;2023-01-25T08:31:24;103615.22;;;0.91;97.04
44920;BME280;30655;53.094;6.072;2023-01-25T08:34:12;103494.25;;;0.15;96.92
44920;BME280;30655;53.094;6.072;2023-01-25T08:36:53;103581.13;;;0.66;96.91
44920;BME280;30655;53.094;6.072;2023-01-25T08:39:33;103483.19;;;0.10;97.60
44920;BME280;30655;53.094;6.072;2023-01-25T08:42:05;103440.81;;;-0.22;97.05
44920;BME280;30655;53.094;6.072;2023-01-25T08:44:37;103620.31;;;0.94;97.44
44920;BME280;30655;53.094;6.072;2023-01-25T08:47:04;103627.44;;;0.94;97.46
44920;BME280;30655;53.094;6.072;2023-01-25T08:49:36;103630.97;;;0.94;97.67
44920;BME280;30655;53.094;6.072;2023-01-25T08:52:04;103561.63;;;0.65;97.13
44920;BME280;30655;53.094;6.072;2023-01-25T08:54:33;103617.34;;;0.97;96.65
44920;BME280;30655;53.094;6.072;2023-01-25T08:57:13;103411.06;;;-0.46;97.01
44920;BME280;30655;53.094;6.072;2023-01-25T08:59:43;103441.66;;;-0.21;97.09
44920;BME280;30655;53.094;6.072;2023-01-25T09:02:13;103538.22;;;0.50;96.99
44920;BME280;30655;53.094;6.072;2023-01-25T09:04:43;103557.88;;;0.68;97.21
44920;BME280;30655;53.094;6.072;2023-01-25T09:07:12;103609.78;;;1.02;96.57
44920;BME280;30655;53.094;6.072;2023-01-25T09:09:42;103598.72;;;0.97;97.55
44920;BME280;30655;53.094;6.072;2023-01-25T09:12:17;103587.34;;;0.95;97.35
44920;BME280;30655;53.094;6.072;2023-01-25T09:14:56;103384.13;;;-0.32;97.13
44920;BME280;30655;53.094;6.072;2023-01-25T09:17:29;103601.09;;;1.00;97.82
44920;BME280;30655;53.094;6.072;2023-01-25T09:19:59;103548.75;;;0.70;97.57
44920;BME280;30655;53.094;6.072;2023-01-25T09:22:26;103392.84;;;-0.20;97.23
44920;BME280;30655;53.094;6.072;2023-01-25T09:24:56;103597.31;;;1.03;97.58
44920;BME280;30655;53.094;6.072;2023-01-25T09:27:25;103612.34;;;1.04;97.38
44920;BME280;30655;53.094;6.072;2023-01-25T09:30:02;103421.00;;;-0.08;97.22
44920;BME280;30655;53.094;6.072;2023-01-25T09:32:32;103541.09;;;0.77;97.43
44920;BME280;30655;53.094;6.072;2023-01-25T09:35:12;103564.94;;;0.88;97.46
44920;BME280;30655;53.094;6.072;2023-01-25T09:37:43;103603.38;;;1.14;98.01
44920;BME280;30655;53.094;6.072;2023-01-25T09:40:18;103583.72;;;1.15;97.79
44920;BME280;30655;53.094;6.072;2023-01-25T09:42:56;103418.28;;;0.22;97.42
44920;BME280;30655;53.094;6.072;2023-01-25T09:45:30;103353.00;;;-0.20;97.77
44920;BME280;30655;53.094;6.072;2023-01-25T09:48:12;103406.50;;;0.15;97.71
44920;BME280;30655;53.094;6.072;2023-01-25T09:51:01;103436.25;;;0.39;97.83
44920;BME280;30655;53.094;6.072;2023-01-25T09:53:33;103433.75;;;0.48;97.94
44920;BME280;30655;53.094;6.072;2023-01-25T09:56:03;103371.22;;;0.04;97.67
44920;BME280;30655;53.094;6.072;2023-01-25T09:58:37;103490.38;;;0.88;97.90
44920;BME280;30655;53.094;6.072;2023-01-25T10:01:20;103409.66;;;0.39;98.17
44920;BME280;30655;53.094;6.072;2023-01-25T10:04:09;103557.09;;;1.35;97.51
44920;BME280;30655;53.094;6.072;2023-01-25T10:06:40;103461.78;;;0.80;98.05
44920;BME280;30655;53.094;6.072;2023-01-25T10:09:24;103397.03;;;0.41;98.29
44920;BME280;30655;53.094;6.072;2023-01-25T10:11:53;103454.06;;;0.87;98.33
44920;BME280;30655;53.094;6.072;2023-01-25T10:14:20;103526.53;;;1.39;98.95
44920;BME280;30655;53.094;6.072;2023-01-25T10:16:58;103504.22;;;1.30;98.43
44920;BME280;30655;53.094;6.072;2023-01-25T10:19:37;103528.91;;;1.42;98.31
44920;BME280;30655;53.094;6.072;2023-01-25T10:22:14;103385.00;;;0.76;98.08
44920;BME280;30655;53.094;6.072;2023-01-25T10:25:14;103501.84;;;1.46;98.31
44920;BME280;30655;53.094;6.072;2023-01-25T10:27:56;103270.88;;;0.15;98.35
44920;BME280;30655;53.094;6.072;2023-01-25T10:30:28;103450.81;;;1.22;98.48
44920;BME280;30655;53.094;6.072;2023-01-25T10:32:57;103323.13;;;0.55;98.47
44920;BME280;30655;53.094;6.072;2023-01-25T10:35:29;103489.47;;;1.55;98.42
44920;BME280;30655;53.094;6.072;2023-01-25T10:38:15;103311.19;;;0.59;98.38
44920;BME280;30655;53.094;6.072;2023-01-25T11:02:37;103428.69;;;1.68;99.13
44920;BME280;30655;53.094;6.072;2023-01-25T11:05:29;103432.44;;;1.75;98.98
44920;BME280;30655;53.094;6.072;2023-01-25T11:07:58;103396.31;;;1.63;99.23
44920;BME280;30655;53.094;6.072;2023-01-25T11:10:41;103413.53;;;1.68;99.27
44920;BME280;30655;53.094;6.072;2023-01-25T11:13:22;103374.44;;;1.50;99.06
44920;BME280;30655;53.094;6.072;2023-01-25T11:15:51;103397.38;;;1.70;99.10
44920;BME280;30655;53.094;6.072;2023-01-25T11:18:23;103380.00;;;1.66;99.00
44920;BME280;30655;53.094;6.072;2023-01-25T11:21:02;103378.19;;;1.66;99.85
44920;BME280;30655;53.094;6.072;2023-01-25T11:23:29;103212.41;;;0.71;99.27
44920;BME280;30655;53.094;6.072;2023-01-25T11:26:10;103378.03;;;1.68;99.90
44920;BME280;30655;53.094;6.072;2023-01-25T11:28:38;103363.56;;;1.70;99.44
44920;BME280;30655;53.094;6.072;2023-01-25T11:31:10;103358.94;;;1.72;99.23
44920;BME280;30655;53.094;6.072;2023-01-25T11:33:40;103362.28;;;1.74;99.83
44920;BME280;30655;53.094;6.072;2023-01-25T11:36:21;103342.69;;;1.66;99.80
44920;BME280;30655;53.094;6.072;2023-01-25T11:39:07;103231.06;;;1.08;99.87
44920;BME280;30655;53.094;6.072;2023-01-25T11:41:43;103351.88;;;1.81;99.89
44920;BME280;30655;53.094;6.072;2023-01-25T11:44:35;103185.56;;;0.92;99.58
44920;BME280;30655;53.094;6.072;2023-01-25T11:47:13;103244.97;;;1.29;100.00
44920;BME280;30655;53.094;6.072;2023-01-25T11:49:53;103291.06;;;1.67;99.75
44920;BME280;30655;53.094;6.072;2023-01-25T11:52:33;103321.63;;;1.90;99.96
44920;BME280;30655;53.094;6.072;2023-01-25T11:55:20;103307.31;;;1.91;100.00
44920;BME280;30655;53.094;6.072;2023-01-25T11:58:10;103125.22;;;0.83;99.05
44920;BME280;30655;53.094;6.072;2023-01-25T12:00:50;103200.91;;;1.35;99.71
44920;BME280;30655;53.094;6.072;2023-01-25T12:06:46;103280.72;;;1.99;100.00
44920;BME280;30655;53.094;6.072;2023-01-25T12:09:28;103272.09;;;2.05;100.00
44920;BME280;30655;53.094;6.072;2023-01-25T12:12:08;103181.06;;;1.47;99.93
44920;BME280;30655;53.094;6.072;2023-01-25T12:17:47;103260.47;;;2.06;100.00
44920;BME280;30655;53.094;6.072;2023-01-25T12:20:36;103244.44;;;2.06;99.96
44920;BME280;30655;53.094;6.072;2023-01-25T12:23:20;103181.16;;;1.73;99.87
44920;BME280;30655;53.094;6.072;2023-01-25T12:26:00;103239.81;;;2.08;100.00
44920;BME280;30655;53.094;6.072;2023-01-25T12:28:33;103116.78;;;1.33;99.80
44920;BME280;30655;53.094;6.072;2023-01-25T12:31:06;103220.44;;;2.06;99.79
44920;BME280;30655;53.094;6.072;2023-01-25T12:33:39;103219.69;;;2.14;100.00
44920;BME280;30655;53.094;6.072;2023-01-25T12:36:16;103179.44;;;1.90;99.96
44920;BME280;30655;53.094;6.072;2023-01-25T12:38:51;103208.19;;;2.13;99.93
44920;BME280;30655;53.094;6.072;2023-01-25T12:41:28;103193.06;;;2.04;100.00
44920;BME280;30655;53.094;6.072;2023-01-25T12:44:05;103205.50;;;2.13;100.00
44920;BME280;30655;53.094;6.072;2023-01-25T12:46:39;103071.88;;;1.38;100.00
44920;BME280;30655;53.094;6.072;2023-01-25T12:49:16;103194.88;;;2.22;99.79
44920;BME280;30655;53.094;6.072;2023-01-25T12:51:46;103067.22;;;1.40;99.92
44920;BME280;30655;53.094;6.072;2023-01-25T12:54:22;103144.88;;;1.98;99.82
44920;BME280;30655;53.094;6.072;2023-01-25T12:56:57;103148.91;;;2.02;99.77
44920;BME280;30655;53.094;6.072;2023-01-25T12:59:32;103069.50;;;1.52;100.00
44920;BME280;30655;53.094;6.072;2023-01-25T13:02:17;103147.81;;;2.12;99.95
44920;BME280;30655;53.094;6.072;2023-01-25T13:04:54;103039.81;;;1.47;100.00
44920;BME280;30655;53.094;6.072;2023-01-25T13:07:32;103169.91;;;2.23;100.00
44920;BME280;30655;53.094;6.072;2023-01-25T13:10:12;103164.19;;;2.17;100.00
44920;BME280;30655;53.094;6.072;2023-01-25T13:12:52;103160.53;;;2.19;100.00
44920;BME280;30655;53.094;6.072;2023-01-25T13:15:41;103153.16;;;2.12;99.99
44920;BME280;30655;53.094;6.072;2023-01-25T13:18:38;103154.50;;;2.16;100.00
44920;BME280;30655;53.094;6.072;2023-01-25T13:21:10;103144.66;;;2.17;99.93
44920;BME280;30655;53.094;6.072;2023-01-25T13:23:39;103151.97;;;2.15;100.00
44920;BME280;30655;53.094;6.072;2023-01-25T13:26:41;103139.81;;;2.12;100.00
44920;BME280;30655;53.094;6.072;2023-01-25T13:35:33;103116.38;;;1.98;100.00
44920;BME280;30655;53.094;6.072;2023-01-25T13:38:02;103122.97;;;2.12;100.00
44920;BME280;30655;53.094;6.072;2023-01-25T13:40:34;103000.84;;;1.46;99.75
44920;BME280;30655;53.094;6.072;2023-01-25T13:43:15;103021.41;;;1.54;100.00
44920;BME280;30655;53.094;6.072;2023-01-25T13:45:43;103053.34;;;1.71;99.92
44920;BME280;30655;53.094;6.072;2023-01-25T13:48:13;103088.53;;;2.01;99.93
44920;BME280;30655;53.094;6.072;2023-01-25T13:50:44;103110.13;;;2.15;99.53
44920;BME280;30655;53.094;6.072;2023-01-25T13:53:19;103116.09;;;2.09;99.63
44920;BME280;30655;53.094;6.072;2023-01-25T13:55:48;103102.34;;;2.22;99.42
44920;BME280;30655;53.094;6.072;2023-01-25T13:58:21;103107.53;;;2.24;99.36
44920;BME280;30655;53.094;6.072;2023-01-25T14:00:50;103111.19;;;2.23;99.08
44920;BME280;30655;53.094;6.072;2023-01-25T14:03:22;103112.19;;;2.22;99.12
44920;BME280;30655;53.094;6.072;2023-01-25T14:05:57;103079.03;;;1.98;99.60
44920;BME280;30655;53.094;6.072;2023-01-25T14:08:33;102889.53;;;0.89;98.75
44920;BME280;30655;53.094;6.072;2023-01-25T14:11:05;102983.50;;;1.42;98.98
44920;BME280;30655;53.094;6.072;2023-01-25T14:13:58;103085.28;;;2.15;99.13
44920;BME280;30655;53.094;6.072;2023-01-25T14:16:27;103082.50;;;2.25;99.00